Startzville, Texas
Current Conditions -  °F | °C
As of 4:14 AM on Friday 31 Oct 2014 (Local Time) from KBAZ Reporting Station
Overcast Overcast  
Wind Chill: 65°   Ceiling: 2700
Heat Index: 65°   Visibility: 10mi
Dew Point: 61°   Wind: 12mph
Humidity: 87%   Direction: 30°NNE
Pressure: 30.14"   Gusts: NA
Location:  29.8812°N, 98.2387°W
Report Text: KBAZ 310914Z AUTO 03010KT 10SM FEW022 BKN027 OVC070 18/16 A3014 RMK AO2 LTG DSNT S-W T01830161 $
Loading
Personal Weather Stations






























Interactive Weather Map
Tropical Storm Tracking
New forecast layout! Learn more

10-Day Weather Forecast

Advertisements
Track Severe Weather on mobile